sensor_id;sensor_type;location;lat;lon;timestamp;pressure;altitude;pressure_sealevel;temperature;humidity
54022;BME280;39936;51.058;17.220;2023-04-21T00:02:43;101955.49;;;6.83;100.00
54022;BME280;39936;51.058;17.220;2023-04-21T00:06:29;101974.41;;;6.90;100.00
54022;BME280;39936;51.058;17.220;2023-04-21T00:09:47;101967.58;;;6.83;100.00
54022;BME280;39936;51.058;17.220;2023-04-21T00:13:24;101969.23;;;6.80;100.00
54022;BME280;39936;51.058;17.220;2023-04-21T00:17:17;101965.41;;;6.73;100.00
54022;BME280;39936;51.058;17.220;2023-04-21T00:21:10;101963.35;;;6.64;100.00
54022;BME280;39936;51.058;17.220;2023-04-21T00:24:56;101966.79;;;6.64;100.00
54022;BME280;39936;51.058;17.220;2023-04-21T00:28:45;101960.62;;;6.62;100.00
54022;BME280;39936;51.058;17.220;2023-04-21T00:40:20;101960.70;;;6.57;100.00
54022;BME280;39936;51.058;17.220;2023-04-21T00:44:02;101962.48;;;6.56;100.00
54022;BME280;39936;51.058;17.220;2023-04-21T00:47:38;101961.11;;;6.51;100.00
54022;BME280;39936;51.058;17.220;2023-04-21T00:51:39;101965.95;;;6.50;100.00
54022;BME280;39936;51.058;17.220;2023-04-21T00:55:52;101961.24;;;6.53;100.00
54022;BME280;39936;51.058;17.220;2023-04-21T00:59:19;101959.20;;;6.56;100.00
54022;BME280;39936;51.058;17.220;2023-04-21T01:02:35;101925.72;;;6.36;100.00
54022;BME280;39936;51.058;17.220;2023-04-21T01:06:18;101960.52;;;6.64;100.00
54022;BME280;39936;51.058;17.220;2023-04-21T01:09:56;101958.05;;;6.64;100.00
54022;BME280;39936;51.058;17.220;2023-04-21T01:13:39;101962.70;;;6.62;100.00
54022;BME280;39936;51.058;17.220;2023-04-21T01:17:18;101962.14;;;6.59;100.00
54022;BME280;39936;51.058;17.220;2023-04-21T01:21:28;101958.51;;;6.60;100.00
54022;BME280;39936;51.058;17.220;2023-04-21T01:25:07;101956.16;;;6.52;100.00
54022;BME280;39936;51.058;17.220;2023-04-21T01:28:25;101957.19;;;6.49;100.00
54022;BME280;39936;51.058;17.220;2023-04-21T01:31:55;101956.45;;;6.48;100.00
54022;BME280;39936;51.058;17.220;2023-04-21T01:35:49;101959.59;;;6.48;100.00
54022;BME280;39936;51.058;17.220;2023-04-21T01:42:59;101957.07;;;6.46;100.00
54022;BME280;39936;51.058;17.220;2023-04-21T01:46:20;101959.16;;;6.38;100.00
54022;BME280;39936;51.058;17.220;2023-04-21T01:50:07;101961.15;;;6.34;100.00
54022;BME280;39936;51.058;17.220;2023-04-21T01:54:16;101962.84;;;6.32;100.00
54022;BME280;39936;51.058;17.220;2023-04-21T01:57:45;101959.22;;;6.35;100.00
54022;BME280;39936;51.058;17.220;2023-04-21T02:01:30;101960.02;;;6.37;100.00
54022;BME280;39936;51.058;17.220;2023-04-21T02:04:48;101958.35;;;6.33;100.00
54022;BME280;39936;51.058;17.220;2023-04-21T02:08:28;101955.09;;;6.29;100.00
54022;BME280;39936;51.058;17.220;2023-04-21T02:12:16;101956.10;;;6.32;100.00
54022;BME280;39936;51.058;17.220;2023-04-21T02:15:52;101951.58;;;6.29;100.00
54022;BME280;39936;51.058;17.220;2023-04-21T02:19:40;101936.93;;;6.20;100.00
54022;BME280;39936;51.058;17.220;2023-04-21T02:23:15;101953.70;;;6.24;100.00
54022;BME280;39936;51.058;17.220;2023-04-21T02:26:50;101957.94;;;6.20;100.00
54022;BME280;39936;51.058;17.220;2023-04-21T02:34:35;101969.24;;;6.06;100.00
54022;BME280;39936;51.058;17.220;2023-04-21T02:37:56;101969.80;;;5.85;100.00
54022;BME280;39936;51.058;17.220;2023-04-21T02:45:30;101982.00;;;5.69;100.00
54022;BME280;39936;51.058;17.220;2023-04-21T02:48:44;101979.71;;;5.63;100.00
54022;BME280;39936;51.058;17.220;2023-04-21T02:52:20;101990.09;;;5.61;100.00
54022;BME280;39936;51.058;17.220;2023-04-21T02:59:46;101985.45;;;5.42;100.00
54022;BME280;39936;51.058;17.220;2023-04-21T03:03:54;101987.84;;;5.31;100.00
54022;BME280;39936;51.058;17.220;2023-04-21T03:08:16;101994.01;;;5.20;100.00
54022;BME280;39936;51.058;17.220;2023-04-21T03:12:15;101994.80;;;5.10;100.00
54022;BME280;39936;51.058;17.220;2023-04-21T03:15:51;101994.38;;;4.94;100.00
54022;BME280;39936;51.058;17.220;2023-04-21T03:20:00;101995.03;;;4.77;100.00
54022;BME280;39936;51.058;17.220;2023-04-21T03:23:52;101994.20;;;4.69;100.00
54022;BME280;39936;51.058;17.220;2023-04-21T03:27:28;101999.61;;;4.67;100.00
54022;BME280;39936;51.058;17.220;2023-04-21T03:30:55;102001.26;;;4.60;100.00
54022;BME280;39936;51.058;17.220;2023-04-21T03:34:31;102002.63;;;4.54;100.00
54022;BME280;39936;51.058;17.220;2023-04-21T03:38:17;102004.88;;;4.48;100.00
54022;BME280;39936;51.058;17.220;2023-04-21T03:41:53;102004.35;;;4.43;100.00
54022;BME280;39936;51.058;17.220;2023-04-21T03:45:25;101981.65;;;4.25;100.00
54022;BME280;39936;51.058;17.220;2023-04-21T03:49:38;101999.98;;;4.32;100.00
54022;BME280;39936;51.058;17.220;2023-04-21T03:52:56;102007.02;;;4.34;100.00
54022;BME280;39936;51.058;17.220;2023-04-21T03:57:09;102005.19;;;4.33;100.00
54022;BME280;39936;51.058;17.220;2023-04-21T04:00:32;102004.94;;;4.46;100.00
54022;BME280;39936;51.058;17.220;2023-04-21T04:04:08;102009.73;;;4.70;100.00
54022;BME280;39936;51.058;17.220;2023-04-21T04:08:02;102006.40;;;4.94;100.00
54022;BME280;39936;51.058;17.220;2023-04-21T04:11:50;102006.05;;;5.42;100.00
54022;BME280;39936;51.058;17.220;2023-04-21T04:15:09;102004.97;;;5.87;100.00
54022;BME280;39936;51.058;17.220;2023-04-21T04:18:25;101999.58;;;6.05;100.00
54022;BME280;39936;51.058;17.220;2023-04-21T04:22:30;101999.16;;;6.56;100.00
54022;BME280;39936;51.058;17.220;2023-04-21T04:25:50;102002.11;;;7.29;100.00
54022;BME280;39936;51.058;17.220;2023-04-21T04:30:03;101986.83;;;7.65;100.00
54022;BME280;39936;51.058;17.220;2023-04-21T04:33:41;101992.80;;;8.71;100.00
54022;BME280;39936;51.058;17.220;2023-04-21T04:37:29;101981.31;;;9.62;100.00
54022;BME280;39936;51.058;17.220;2023-04-21T04:41:06;101976.46;;;10.49;92.58
54022;BME280;39936;51.058;17.220;2023-04-21T04:44:56;101979.22;;;10.62;86.70
54022;BME280;39936;51.058;17.220;2023-04-21T04:48:15;101970.36;;;11.45;87.36
54022;BME280;39936;51.058;17.220;2023-04-21T04:55:50;101943.05;;;13.31;78.64
54022;BME280;39936;51.058;17.220;2023-04-21T05:00:13;101950.75;;;13.98;73.66
54022;BME280;39936;51.058;17.220;2023-04-21T05:03:45;101971.96;;;12.59;65.70
54022;BME280;39936;51.058;17.220;2023-04-21T05:07:06;101953.59;;;10.71;70.95
54022;BME280;39936;51.058;17.220;2023-04-21T05:10:25;101952.59;;;9.74;75.30
54022;BME280;39936;51.058;17.220;2023-04-21T05:14:28;101993.03;;;9.32;78.86
54022;BME280;39936;51.058;17.220;2023-04-21T05:17:55;101992.99;;;8.99;81.86
54022;BME280;39936;51.058;17.220;2023-04-21T05:22:05;101996.37;;;9.01;83.98
54022;BME280;39936;51.058;17.220;2023-04-21T05:25:40;101993.45;;;9.34;85.78
54022;BME280;39936;51.058;17.220;2023-04-21T05:28:59;101985.73;;;9.90;86.44
54022;BME280;39936;51.058;17.220;2023-04-21T05:32:37;101955.09;;;10.19;84.98
54022;BME280;39936;51.058;17.220;2023-04-21T05:36:05;101980.98;;;10.70;82.34
54022;BME280;39936;51.058;17.220;2023-04-21T05:39:29;101981.34;;;10.47;80.23
54022;BME280;39936;51.058;17.220;2023-04-21T05:42:59;101956.67;;;10.13;78.81
54022;BME280;39936;51.058;17.220;2023-04-21T05:46:38;101985.87;;;10.23;78.31
54022;BME280;39936;51.058;17.220;2023-04-21T05:50:18;101991.30;;;9.75;77.39
54022;BME280;39936;51.058;17.220;2023-04-21T05:54:44;102000.95;;;9.07;79.25
54022;BME280;39936;51.058;17.220;2023-04-21T05:58:11;102004.91;;;8.93;81.53
54022;BME280;39936;51.058;17.220;2023-04-21T06:01:37;102004.77;;;9.04;82.39
54022;BME280;39936;51.058;17.220;2023-04-21T06:05:13;101968.59;;;9.01;81.41
54022;BME280;39936;51.058;17.220;2023-04-21T06:12:21;101987.44;;;9.62;79.65
54022;BME280;39936;51.058;17.220;2023-04-21T06:16:02;101998.16;;;10.00;80.51
54022;BME280;39936;51.058;17.220;2023-04-21T06:20:08;101998.98;;;10.25;79.24
54022;BME280;39936;51.058;17.220;2023-04-21T06:23:26;101992.87;;;10.60;79.04
54022;BME280;39936;51.058;17.220;2023-04-21T06:27:38;101986.16;;;10.68;78.26
54022;BME280;39936;51.058;17.220;2023-04-21T06:30:51;101980.90;;;11.04;77.17
54022;BME280;39936;51.058;17.220;2023-04-21T06:34:47;101974.18;;;11.46;74.47
54022;BME280;39936;51.058;17.220;2023-04-21T06:38:33;101968.95;;;11.74;74.27
54022;BME280;39936;51.058;17.220;2023-04-21T06:41:48;101968.63;;;11.93;71.32
54022;BME280;39936;51.058;17.220;2023-04-21T06:45:26;101975.05;;;11.80;66.60
54022;BME280;39936;51.058;17.220;2023-04-21T06:48:40;101976.84;;;11.59;69.26
54022;BME280;39936;51.058;17.220;2023-04-21T06:51:58;101973.95;;;11.26;68.23
54022;BME280;39936;51.058;17.220;2023-04-21T06:55:17;101976.20;;;11.53;69.90
54022;BME280;39936;51.058;17.220;2023-04-21T06:58:31;101973.11;;;11.83;70.20
54022;BME280;39936;51.058;17.220;2023-04-21T07:02:30;101969.44;;;12.31;70.98
54022;BME280;39936;51.058;17.220;2023-04-21T07:05:45;101961.56;;;12.84;68.29
54022;BME280;39936;51.058;17.220;2023-04-21T07:10:02;101965.35;;;12.98;65.88
54022;BME280;39936;51.058;17.220;2023-04-21T07:13:13;101964.55;;;13.00;65.70
54022;BME280;39936;51.058;17.220;2023-04-21T07:16:53;101959.38;;;13.30;65.79
54022;BME280;39936;51.058;17.220;2023-04-21T07:20:38;101932.90;;;13.54;63.55
54022;BME280;39936;51.058;17.220;2023-04-21T07:24:14;101966.67;;;12.85;62.15
54022;BME280;39936;51.058;17.220;2023-04-21T07:27:47;101964.01;;;12.63;64.57
54022;BME280;39936;51.058;17.220;2023-04-21T07:31:41;101935.11;;;12.42;65.11
54022;BME280;39936;51.058;17.220;2023-04-21T07:35:54;101965.92;;;12.88;64.23
54022;BME280;39936;51.058;17.220;2023-04-21T07:40:19;101949.05;;;13.11;62.20
54022;BME280;39936;51.058;17.220;2023-04-21T07:43:51;101968.29;;;12.87;61.34
54022;BME280;39936;51.058;17.220;2023-04-21T07:47:51;101965.91;;;12.93;62.35
54022;BME280;39936;51.058;17.220;2023-04-21T07:51:05;101959.01;;;13.24;60.13
54022;BME280;39936;51.058;17.220;2023-04-21T07:54:19;101961.08;;;13.54;60.59
54022;BME280;39936;51.058;17.220;2023-04-21T07:58:04;101953.27;;;13.86;58.40
54022;BME280;39936;51.058;17.220;2023-04-21T08:01:21;101956.79;;;13.94;59.02
54022;BME280;39936;51.058;17.220;2023-04-21T08:04:42;101947.34;;;14.01;58.98
54022;BME280;39936;51.058;17.220;2023-04-21T08:08:45;101950.57;;;14.15;60.05
54022;BME280;39936;51.058;17.220;2023-04-21T08:12:13;101947.44;;;14.52;56.57
54022;BME280;39936;51.058;17.220;2023-04-21T08:15:50;101950.54;;;14.37;58.12
54022;BME280;39936;51.058;17.220;2023-04-21T08:20:16;101950.00;;;14.70;58.77
54022;BME280;39936;51.058;17.220;2023-04-21T08:23:54;101943.26;;;14.36;58.02
54022;BME280;39936;51.058;17.220;2023-04-21T08:27:31;101938.68;;;14.40;58.86
54022;BME280;39936;51.058;17.220;2023-04-21T08:30:50;101936.17;;;14.97;59.59
54022;BME280;39936;51.058;17.220;2023-04-21T08:34:30;101932.81;;;15.52;59.84
54022;BME280;39936;51.058;17.220;2023-04-21T08:38:35;101930.14;;;15.84;57.85
54022;BME280;39936;51.058;17.220;2023-04-21T08:41:58;101931.66;;;15.75;57.20
54022;BME280;39936;51.058;17.220;2023-04-21T08:45:38;101929.45;;;15.85;57.84
54022;BME280;39936;51.058;17.220;2023-04-21T08:49:06;101926.69;;;15.91;56.02
54022;BME280;39936;51.058;17.220;2023-04-21T08:52:56;101924.95;;;16.06;58.86
54022;BME280;39936;51.058;17.220;2023-04-21T08:57:09;101913.45;;;16.41;58.98
54022;BME280;39936;51.058;17.220;2023-04-21T09:01:09;101915.75;;;16.67;55.71
54022;BME280;39936;51.058;17.220;2023-04-21T09:04:50;101926.96;;;15.88;54.69
54022;BME280;39936;51.058;17.220;2023-04-21T09:08:28;101896.16;;;15.63;57.70
54022;BME280;39936;51.058;17.220;2023-04-21T09:11:55;101912.36;;;16.17;59.20
54022;BME280;39936;51.058;17.220;2023-04-21T09:15:43;101904.04;;;16.49;56.28
54022;BME280;39936;51.058;17.220;2023-04-21T09:19:33;101893.18;;;16.44;54.08
54022;BME280;39936;51.058;17.220;2023-04-21T09:26:49;101898.98;;;16.15;53.89
54022;BME280;39936;51.058;17.220;2023-04-21T09:30:08;101890.13;;;16.19;53.11
54022;BME280;39936;51.058;17.220;2023-04-21T09:33:52;101896.41;;;16.17;50.60
54022;BME280;39936;51.058;17.220;2023-04-21T09:37:37;101891.29;;;16.22;53.10
54022;BME280;39936;51.058;17.220;2023-04-21T09:41:20;101886.65;;;16.50;51.45
54022;BME280;39936;51.058;17.220;2023-04-21T09:45:04;101876.90;;;16.84;50.48
54022;BME280;39936;51.058;17.220;2023-04-21T09:48:17;101882.73;;;17.19;48.97
54022;BME280;39936;51.058;17.220;2023-04-21T09:51:59;101872.12;;;16.94;48.97
54022;BME280;39936;51.058;17.220;2023-04-21T09:55:47;101851.61;;;17.01;49.39
54022;BME280;39936;51.058;17.220;2023-04-21T09:59:16;101866.74;;;17.00;49.84
54022;BME280;39936;51.058;17.220;2023-04-21T10:03:26;101860.17;;;16.71;48.89
54022;BME280;39936;51.058;17.220;2023-04-21T10:07:30;101858.80;;;16.87;49.65
54022;BME280;39936;51.058;17.220;2023-04-21T10:11:08;101851.79;;;17.16;46.30
54022;BME280;39936;51.058;17.220;2023-04-21T10:14:25;101850.71;;;17.35;45.95
54022;BME280;39936;51.058;17.220;2023-04-21T10:18:49;101847.18;;;17.41;46.85
54022;BME280;39936;51.058;17.220;2023-04-21T10:22:55;101837.14;;;17.42;44.21
54022;BME280;39936;51.058;17.220;2023-04-21T10:26:24;101809.38;;;17.37;41.53
54022;BME280;39936;51.058;17.220;2023-04-21T10:30:23;101826.53;;;17.17;43.75
54022;BME280;39936;51.058;17.220;2023-04-21T10:34:17;101837.98;;;17.23;41.77
54022;BME280;39936;51.058;17.220;2023-04-21T10:37:40;101848.62;;;17.03;43.66
54022;BME280;39936;51.058;17.220;2023-04-21T10:49:28;101811.35;;;16.64;44.77
54022;BME280;39936;51.058;17.220;2023-04-21T10:56:51;101828.56;;;16.88;41.33
54022;BME280;39936;51.058;17.220;2023-04-21T11:00:29;101814.55;;;16.73;39.90
54022;BME280;39936;51.058;17.220;2023-04-21T11:04:21;101808.59;;;16.88;40.08
54022;BME280;39936;51.058;17.220;2023-04-21T11:07:40;101814.97;;;16.83;41.25
54022;BME280;39936;51.058;17.220;2023-04-21T11:11:34;101816.65;;;17.01;42.36
54022;BME280;39936;51.058;17.220;2023-04-21T11:15:25;101806.81;;;17.27;37.73
54022;BME280;39936;51.058;17.220;2023-04-21T11:19:04;101775.00;;;17.39;39.07
54022;BME280;39936;51.058;17.220;2023-04-21T11:22:29;101774.62;;;17.54;39.89
54022;BME280;39936;51.058;17.220;2023-04-21T11:26:12;101787.39;;;17.70;38.21
54022;BME280;39936;51.058;17.220;2023-04-21T11:29:38;101784.54;;;17.83;37.43
54022;BME280;39936;51.058;17.220;2023-04-21T11:32:55;101780.43;;;17.73;38.50
54022;BME280;39936;51.058;17.220;2023-04-21T11:36:39;101787.02;;;17.87;38.96
54022;BME280;39936;51.058;17.220;2023-04-21T11:40:50;101774.48;;;17.95;35.59
54022;BME280;39936;51.058;17.220;2023-04-21T11:44:11;101779.23;;;18.04;39.73
54022;BME280;39936;51.058;17.220;2023-04-21T11:47:33;101744.26;;;17.97;39.37
54022;BME280;39936;51.058;17.220;2023-04-21T11:50:56;101748.76;;;18.08;39.86
54022;BME280;39936;51.058;17.220;2023-04-21T11:59:11;101763.74;;;18.22;38.37
54022;BME280;39936;51.058;17.220;2023-04-21T12:02:32;101769.19;;;18.23;38.97
54022;BME280;39936;51.058;17.220;2023-04-21T12:06:26;101726.62;;;18.01;38.54
54022;BME280;39936;51.058;17.220;2023-04-21T12:10:20;101754.20;;;18.16;41.20
54022;BME280;39936;51.058;17.220;2023-04-21T12:14:02;101746.96;;;18.17;37.64
54022;BME280;39936;51.058;17.220;2023-04-21T12:17:23;101752.16;;;17.96;37.09
54022;BME280;39936;51.058;17.220;2023-04-21T12:20:54;101720.38;;;17.99;37.73
54022;BME280;39936;51.058;17.220;2023-04-21T12:32:28;101750.11;;;17.64;37.37
54022;BME280;39936;51.058;17.220;2023-04-21T12:36:29;101748.39;;;17.58;37.82
54022;BME280;39936;51.058;17.220;2023-04-21T12:39:48;101740.41;;;17.60;37.37
54022;BME280;39936;51.058;17.220;2023-04-21T12:43:10;101739.70;;;17.58;38.63
54022;BME280;39936;51.058;17.220;2023-04-21T12:46:43;101737.63;;;17.58;38.24
54022;BME280;39936;51.058;17.220;2023-04-21T12:50:19;101741.77;;;17.31;39.05
54022;BME280;39936;51.058;17.220;2023-04-21T12:54:06;101744.45;;;17.20;39.59
54022;BME280;39936;51.058;17.220;2023-04-21T12:57:59;101726.23;;;17.29;39.70
54022;BME280;39936;51.058;17.220;2023-04-21T13:02:00;101734.22;;;17.54;38.29
54022;BME280;39936;51.058;17.220;2023-04-21T13:05:35;101726.79;;;17.36;38.94
54022;BME280;39936;51.058;17.220;2023-04-21T13:09:43;101732.41;;;17.58;38.45
54022;BME280;39936;51.058;17.220;2023-04-21T13:13:34;101721.22;;;17.76;37.23
54022;BME280;39936;51.058;17.220;2023-04-21T13:17:14;101720.98;;;17.89;38.57
54022;BME280;39936;51.058;17.220;2023-04-21T13:25:08;101704.22;;;17.91;35.43
54022;BME280;39936;51.058;17.220;2023-04-21T13:28:41;101677.66;;;17.96;35.04
54022;BME280;39936;51.058;17.220;2023-04-21T13:32:04;101693.06;;;18.12;36.15
54022;BME280;39936;51.058;17.220;2023-04-21T13:36:02;101693.11;;;18.13;34.83
54022;BME280;39936;51.058;17.220;2023-04-21T13:43:12;101682.98;;;17.79;34.86
54022;BME280;39936;51.058;17.220;2023-04-21T13:46:37;101666.00;;;17.74;34.77
54022;BME280;39936;51.058;17.220;2023-04-21T13:50:32;101682.07;;;17.97;35.68
54022;BME280;39936;51.058;17.220;2023-04-21T13:54:12;101675.84;;;18.18;36.36
54022;BME280;39936;51.058;17.220;2023-04-21T13:57:49;101675.67;;;17.99;35.48
54022;BME280;39936;51.058;17.220;2023-04-21T14:01:36;101677.59;;;18.06;36.53
54022;BME280;39936;51.058;17.220;2023-04-21T14:05:14;101670.81;;;17.94;36.36
54022;BME280;39936;51.058;17.220;2023-04-21T14:08:35;101660.60;;;17.86;37.28
54022;BME280;39936;51.058;17.220;2023-04-21T14:11:55;101664.57;;;17.87;37.05
54022;BME280;39936;51.058;17.220;2023-04-21T14:15:13;101656.49;;;18.04;36.11
54022;BME280;39936;51.058;17.220;2023-04-21T14:19:37;101654.74;;;18.26;37.29
54022;BME280;39936;51.058;17.220;2023-04-21T14:23:38;101628.24;;;17.97;35.47
54022;BME280;39936;51.058;17.220;2023-04-21T14:27:40;101629.10;;;18.26;37.09
54022;BME280;39936;51.058;17.220;2023-04-21T14:31:24;101635.88;;;18.37;36.78
54022;BME280;39936;51.058;17.220;2023-04-21T14:39:12;101636.52;;;18.14;35.18
54022;BME280;39936;51.058;17.220;2023-04-21T14:43:11;101620.89;;;18.28;36.96
54022;BME280;39936;51.058;17.220;2023-04-21T14:46:56;101634.83;;;18.33;38.23
54022;BME280;39936;51.058;17.220;2023-04-21T14:50:27;101643.02;;;18.19;37.16
54022;BME280;39936;51.058;17.220;2023-04-21T14:53:59;101639.59;;;18.00;37.89
54022;BME280;39936;51.058;17.220;2023-04-21T14:57:37;101636.91;;;17.67;39.14
54022;BME280;39936;51.058;17.220;2023-04-21T15:00:54;101624.59;;;17.26;39.56
54022;BME280;39936;51.058;17.220;2023-04-21T15:08:20;101633.73;;;17.06;41.31
54022;BME280;39936;51.058;17.220;2023-04-21T15:11:37;101628.06;;;17.38;38.32
54022;BME280;39936;51.058;17.220;2023-04-21T15:15:40;101622.24;;;17.61;39.20
54022;BME280;39936;51.058;17.220;2023-04-21T15:19:16;101616.78;;;17.83;37.70
54022;BME280;39936;51.058;17.220;2023-04-21T15:22:39;101615.88;;;17.92;37.25
54022;BME280;39936;51.058;17.220;2023-04-21T15:26:03;101614.56;;;17.94;38.19
54022;BME280;39936;51.058;17.220;2023-04-21T15:29:25;101611.05;;;17.91;38.45
54022;BME280;39936;51.058;17.220;2023-04-21T15:36:58;101609.43;;;17.67;37.48
54022;BME280;39936;51.058;17.220;2023-04-21T15:41:10;101606.77;;;17.55;38.13
54022;BME280;39936;51.058;17.220;2023-04-21T15:45:13;101605.52;;;17.61;39.50
54022;BME280;39936;51.058;17.220;2023-04-21T15:49:10;101585.76;;;17.29;39.19
54022;BME280;39936;51.058;17.220;2023-04-21T15:56:54;101604.25;;;17.52;39.35
54022;BME280;39936;51.058;17.220;2023-04-21T16:01:08;101604.60;;;17.41;38.99
54022;BME280;39936;51.058;17.220;2023-04-21T16:05:26;101598.88;;;17.36;40.12
54022;BME280;39936;51.058;17.220;2023-04-21T16:09:06;101594.49;;;17.27;40.42
54022;BME280;39936;51.058;17.220;2023-04-21T16:13:11;101592.26;;;17.26;40.21
54022;BME280;39936;51.058;17.220;2023-04-21T16:17:16;101587.82;;;17.19;39.37
54022;BME280;39936;51.058;17.220;2023-04-21T16:20:51;101574.61;;;17.11;38.88
54022;BME280;39936;51.058;17.220;2023-04-21T16:24:10;101567.24;;;17.10;39.40
54022;BME280;39936;51.058;17.220;2023-04-21T16:28:02;101581.11;;;17.14;39.15
54022;BME280;39936;51.058;17.220;2023-04-21T16:31:46;101580.68;;;17.06;40.66
54022;BME280;39936;51.058;17.220;2023-04-21T16:35:23;101578.90;;;16.93;41.59
54022;BME280;39936;51.058;17.220;2023-04-21T16:38:50;101582.84;;;16.86;41.88
54022;BME280;39936;51.058;17.220;2023-04-21T16:42:05;101579.30;;;16.83;42.41
54022;BME280;39936;51.058;17.220;2023-04-21T16:46:17;101574.03;;;16.70;41.45
54022;BME280;39936;51.058;17.220;2023-04-21T16:49:37;101575.72;;;16.68;41.95
54022;BME280;39936;51.058;17.220;2023-04-21T16:53:07;101575.41;;;16.58;41.79
54022;BME280;39936;51.058;17.220;2023-04-21T16:56:46;101575.27;;;16.52;42.23
54022;BME280;39936;51.058;17.220;2023-04-21T17:00:30;101576.31;;;16.41;42.41
54022;BME280;39936;51.058;17.220;2023-04-21T17:04:29;101577.68;;;16.31;43.02
54022;BME280;39936;51.058;17.220;2023-04-21T17:07:48;101575.87;;;16.23;43.09
54022;BME280;39936;51.058;17.220;2023-04-21T17:11:33;101571.86;;;16.21;42.99
54022;BME280;39936;51.058;17.220;2023-04-21T17:15:10;101568.82;;;16.19;43.85
54022;BME280;39936;51.058;17.220;2023-04-21T17:19:00;101568.45;;;16.05;43.75
54022;BME280;39936;51.058;17.220;2023-04-21T17:22:49;101567.13;;;15.93;43.59
54022;BME280;39936;51.058;17.220;2023-04-21T17:26:27;101569.13;;;15.82;44.17
54022;BME280;39936;51.058;17.220;2023-04-21T17:29:51;101570.30;;;15.65;44.43
54022;BME280;39936;51.058;17.220;2023-04-21T17:33:24;101571.23;;;15.52;45.13
54022;BME280;39936;51.058;17.220;2023-04-21T17:36:57;101572.60;;;15.37;45.10
54022;BME280;39936;51.058;17.220;2023-04-21T17:40:35;101574.40;;;15.20;45.10
54022;BME280;39936;51.058;17.220;2023-04-21T17:44:58;101572.17;;;15.02;45.61
54022;BME280;39936;51.058;17.220;2023-04-21T17:48:54;101564.02;;;14.64;45.64
54022;BME280;39936;51.058;17.220;2023-04-21T17:52:17;101580.84;;;14.52;46.44
54022;BME280;39936;51.058;17.220;2023-04-21T17:56:20;101585.30;;;14.42;46.86
54022;BME280;39936;51.058;17.220;2023-04-21T18:03:51;101597.38;;;14.08;48.49
54022;BME280;39936;51.058;17.220;2023-04-21T18:07:24;101600.21;;;13.87;49.12
54022;BME280;39936;51.058;17.220;2023-04-21T18:11:03;101604.48;;;13.67;50.18
54022;BME280;39936;51.058;17.220;2023-04-21T18:14:45;101611.53;;;13.49;51.19
54022;BME280;39936;51.058;17.220;2023-04-21T18:18:42;101611.95;;;13.34;51.64
54022;BME280;39936;51.058;17.220;2023-04-21T18:23:05;101617.64;;;13.20;52.43
54022;BME280;39936;51.058;17.220;2023-04-21T18:30:48;101616.61;;;13.03;52.75
54022;BME280;39936;51.058;17.220;2023-04-21T18:34:04;101619.67;;;12.99;52.91
54022;BME280;39936;51.058;17.220;2023-04-21T18:37:44;101625.19;;;12.95;52.96
54022;BME280;39936;51.058;17.220;2023-04-21T18:41:35;101626.41;;;12.93;52.69
54022;BME280;39936;51.058;17.220;2023-04-21T18:45:12;101622.31;;;12.93;52.36
54022;BME280;39936;51.058;17.220;2023-04-21T18:48:42;101620.86;;;12.86;52.42
54022;BME280;39936;51.058;17.220;2023-04-21T18:51:58;101626.99;;;12.72;52.86
54022;BME280;39936;51.058;17.220;2023-04-21T18:55:51;101623.54;;;12.49;54.10
54022;BME280;39936;51.058;17.220;2023-04-21T18:59:54;101631.54;;;12.32;54.46
54022;BME280;39936;51.058;17.220;2023-04-21T19:03:11;101631.56;;;12.24;54.60
54022;BME280;39936;51.058;17.220;2023-04-21T19:06:40;101633.66;;;12.14;54.94
54022;BME280;39936;51.058;17.220;2023-04-21T19:09:59;101636.77;;;11.99;55.49
54022;BME280;39936;51.058;17.220;2023-04-21T19:13:27;101627.48;;;11.83;56.07
54022;BME280;39936;51.058;17.220;2023-04-21T19:17:08;101638.60;;;11.74;56.51
54022;BME280;39936;51.058;17.220;2023-04-21T19:20:46;101637.76;;;11.61;56.68
54022;BME280;39936;51.058;17.220;2023-04-21T19:24:27;101637.66;;;11.51;56.96
54022;BME280;39936;51.058;17.220;2023-04-21T19:31:49;101636.91;;;11.37;57.13
54022;BME280;39936;51.058;17.220;2023-04-21T19:39:52;101638.07;;;11.20;57.20
54022;BME280;39936;51.058;17.220;2023-04-21T19:43:38;101627.70;;;11.08;57.50
54022;BME280;39936;51.058;17.220;2023-04-21T19:46:52;101631.94;;;11.09;57.44
54022;BME280;39936;51.058;17.220;2023-04-21T19:50:13;101631.34;;;11.05;57.59
54022;BME280;39936;51.058;17.220;2023-04-21T19:57:45;101635.45;;;10.93;58.11
54022;BME280;39936;51.058;17.220;2023-04-21T20:01:12;101631.52;;;10.83;58.32
54022;BME280;39936;51.058;17.220;2023-04-21T20:04:51;101632.74;;;10.77;58.44
54022;BME280;39936;51.058;17.220;2023-04-21T20:08:07;101635.62;;;10.70;58.21
54022;BME280;39936;51.058;17.220;2023-04-21T20:19:29;101612.55;;;10.34;57.99
54022;BME280;39936;51.058;17.220;2023-04-21T20:23:43;101641.71;;;10.42;58.23
54022;BME280;39936;51.058;17.220;2023-04-21T20:27:19;101645.48;;;10.32;58.70
54022;BME280;39936;51.058;17.220;2023-04-21T20:31:02;101645.69;;;10.23;58.96
54022;BME280;39936;51.058;17.220;2023-04-21T20:34:21;101648.33;;;10.16;59.29
54022;BME280;39936;51.058;17.220;2023-04-21T20:38:10;101649.52;;;10.05;59.98
54022;BME280;39936;51.058;17.220;2023-04-21T20:41:57;101655.32;;;9.92;59.94
54022;BME280;39936;51.058;17.220;2023-04-21T20:45:31;101657.47;;;9.83;59.64
54022;BME280;39936;51.058;17.220;2023-04-21T20:52:50;101666.12;;;9.61;62.81